Time;durP1;ratioP1;P1;durP2;ratioP2;P2;SDS_P1;SDS_P2;PMS_P1;PMS_P2;Temp;Humidity;BMP_temperature;BMP_pressure;BME280_temperature;BME280_humidity;BME280_pressure;Samples;Min_cycle;Max_cycle;Signal;HPM_P1;HPM_P2
2022/09/15 00:01:10;;;;;;;9.60;1.87;;;24.90;69.90;;;;;;4989332;28;20256;-71
2022/09/15 00:03:37;;;;;;;6.43;1.77;;;24.80;69.70;;;;;;4989848;28;20208;-71
2022/09/15 00:06:05;;;;;;;8.10;1.90;;;24.80;69.70;;;;;;4990880;28;20650;-71
2022/09/15 00:08:32;;;;;;;7.63;2.00;;;24.80;69.90;;;;;;4994077;28;20198;-71
2022/09/15 00:11:07;;;;;;;4.57;1.57;;;24.70;70.30;;;;;;4993297;28;20205;-72
2022/09/15 00:13:35;;;;;;;4.87;1.83;;;24.60;70.80;;;;;;4986778;28;20962;-71
2022/09/15 00:16:03;;;;;;;12.30;3.20;;;24.60;70.60;;;;;;4975267;28;20242;-71
2022/09/15 00:18:31;;;;;;;8.67;2.43;;;24.50;70.70;;;;;;4995780;28;20287;-71
2022/09/15 00:20:58;;;;;;;7.17;1.80;;;24.40;71.00;;;;;;4973626;28;20636;-71
2022/09/15 00:23:25;;;;;;;6.10;1.83;;;24.30;71.40;;;;;;4991845;28;20212;-71
2022/09/15 00:25:52;;;;;;;5.20;1.90;;;24.30;71.70;;;;;;4976061;28;20244;-71
2022/09/15 00:28:21;;;;;;;7.97;2.07;;;24.20;71.90;;;;;;4970324;28;20208;-71
2022/09/15 00:30:53;;;;;;;5.67;2.17;;;24.20;72.00;;;;;;4990838;28;20216;-71
2022/09/15 00:33:21;;;;;;;7.80;1.63;;;24.20;72.10;;;;;;4978059;28;20282;-72
2022/09/15 00:35:50;;;;;;;7.43;1.87;;;24.20;72.10;;;;;;4976540;28;20204;-72
2022/09/15 00:38:18;;;;;;;5.93;1.83;;;24.20;72.20;;;;;;4993040;28;20233;-71
2022/09/15 00:40:50;;;;;;;4.50;1.77;;;24.20;72.30;;;;;;4991784;28;20239;-71
2022/09/15 00:43:20;;;;;;;6.77;2.17;;;24.10;72.60;;;;;;4989033;28;20217;-71
2022/09/15 00:45:47;;;;;;;6.83;2.03;;;24.00;73.00;;;;;;4992639;28;20709;-71
2022/09/15 00:48:18;;;;;;;5.07;1.70;;;24.00;73.30;;;;;;4975668;28;20216;-72
2022/09/15 00:50:57;;;;;;;4.23;1.67;;;24.00;73.40;;;;;;4988274;28;20572;-71
2022/09/15 00:53:25;;;;;;;9.00;2.30;;;24.00;73.20;;;;;;4989539;28;20260;-71
2022/09/15 00:55:55;;;;;;;6.10;1.80;;;24.00;73.00;;;;;;4992543;28;20225;-71
2022/09/15 00:58:30;;;;;;;6.03;1.90;;;24.00;72.70;;;;;;4990920;28;20200;-71
2022/09/15 01:01:00;;;;;;;6.33;1.60;;;24.00;72.70;;;;;;4973992;28;20631;-71
2022/09/15 01:03:30;;;;;;;4.60;1.50;;;24.00;72.90;;;;;;4977228;28;20208;-71
2022/09/15 01:06:02;;;;;;;6.00;1.43;;;24.00;73.00;;;;;;4992870;28;20263;-71
2022/09/15 01:08:43;;;;;;;9.07;1.83;;;23.90;73.00;;;;;;4991840;28;20250;-71
2022/09/15 01:11:10;;;;;;;7.93;1.83;;;23.90;73.10;;;;;;4959181;28;20552;-71
2022/09/15 01:13:37;;;;;;;4.07;1.70;;;23.90;73.40;;;;;;4988973;28;20689;-71
2022/09/15 01:16:45;;;;;;;1.80;1.47;;;23.80;73.60;;;;;;4990127;28;20197;-71
2022/09/15 01:19:21;;;;;;;5.17;1.60;;;23.80;73.90;;;;;;4960864;28;20639;-71
2022/09/15 01:21:56;;;;;;;5.70;1.47;;;23.80;73.80;;;;;;4992026;28;20200;-71
2022/09/15 01:24:47;;;;;;;4.10;1.50;;;23.80;73.90;;;;;;4993839;28;20634;-72
2022/09/15 01:27:43;;;;;;;6.63;2.00;;;23.90;74.20;;;;;;4976737;28;20271;-71
2022/09/15 01:30:20;;;;;;;5.20;1.63;;;23.90;74.30;;;;;;4976274;28;20682;-71
2022/09/15 01:33:18;;;;;;;6.47;1.80;;;23.90;74.40;;;;;;4990487;28;20247;-71
2022/09/15 01:35:51;;;;;;;5.53;1.93;;;23.90;74.50;;;;;;4972585;28;20212;-71
2022/09/15 01:38:38;;;;;;;6.97;1.83;;;24.00;74.40;;;;;;4991778;28;20235;-71
2022/09/15 01:41:28;;;;;;;2.43;1.30;;;24.00;74.30;;;;;;4974479;28;20212;-71
2022/09/15 01:44:10;;;;;;;6.67;1.60;;;23.90;74.50;;;;;;4993898;28;20646;-71
2022/09/15 01:46:46;;;;;;;5.13;1.87;;;23.90;74.50;;;;;;4989858;28;20209;-71
2022/09/15 01:49:18;;;;;;;3.30;1.60;;;23.90;74.50;;;;;;4987974;28;20235;-72
2022/09/15 01:51:47;;;;;;;7.40;1.73;;;24.00;74.80;;;;;;4992116;28;20208;-71
2022/09/15 01:54:16;;;;;;;5.07;1.40;;;24.00;75.10;;;;;;4990402;28;20232;-72
2022/09/15 01:56:43;;;;;;;7.33;1.80;;;24.00;75.40;;;;;;4977944;28;20236;-71
2022/09/15 01:59:10;;;;;;;3.40;1.57;;;24.00;75.70;;;;;;4990401;28;20224;-72
2022/09/15 02:01:49;;;;;;;5.47;2.40;;;24.00;75.90;;;;;;4959042;28;20212;-71
2022/09/15 02:04:29;;;;;;;6.30;1.83;;;23.90;76.00;;;;;;4988940;28;20581;-71
2022/09/15 02:07:19;;;;;;;8.03;2.33;;;24.00;76.30;;;;;;4960188;28;20216;-71
2022/09/15 02:09:49;;;;;;;6.30;2.30;;;24.00;77.60;;;;;;4990667;28;20200;-71
2022/09/15 02:12:28;;;;;;;5.87;2.17;;;24.00;77.30;;;;;;4974622;28;20243;-72
2022/09/15 02:15:02;;;;;;;3.27;1.50;;;24.00;77.80;;;;;;4969779;28;20204;-71
2022/09/15 02:17:34;;;;;;;6.47;2.13;;;24.00;78.00;;;;;;4992717;28;20290;-71
2022/09/15 02:20:15;;;;;;;7.70;1.90;;;24.00;78.20;;;;;;4990035;28;20274;-71
2022/09/15 02:22:49;;;;;;;4.90;1.70;;;24.00;78.40;;;;;;4985877;28;20255;-71
2022/09/15 02:25:21;;;;;;;6.83;2.27;;;24.00;78.10;;;;;;4973662;28;20274;-71
2022/09/15 02:27:53;;;;;;;4.60;1.93;;;23.90;78.20;;;;;;4969365;28;20243;-71
2022/09/15 02:30:21;;;;;;;6.13;1.40;;;23.90;78.40;;;;;;4989279;28;20213;-71
2022/09/15 02:32:53;;;;;;;4.80;1.73;;;24.00;78.30;;;;;;4990450;28;20223;-71
2022/09/15 02:35:21;;;;;;;6.53;2.43;;;24.00;78.10;;;;;;4992958;28;20255;-71
2022/09/15 02:37:48;;;;;;;7.77;2.67;;;23.90;77.90;;;;;;4992130;28;20292;-71
2022/09/15 02:40:16;;;;;;;5.13;1.50;;;23.90;77.90;;;;;;4989688;28;20204;-71
2022/09/15 02:43:00;;;;;;;14.03;1.90;;;23.90;78.00;;;;;;4989246;28;20201;-71
2022/09/15 02:45:32;;;;;;;6.00;1.60;;;23.90;78.00;;;;;;4988282;28;20260;-71
2022/09/15 02:48:00;;;;;;;4.03;2.03;;;23.90;78.10;;;;;;4990371;28;20196;-71
2022/09/15 02:50:27;;;;;;;7.87;2.10;;;23.80;78.20;;;;;;4978999;28;20237;-71
2022/09/15 02:52:54;;;;;;;7.73;2.23;;;23.80;78.00;;;;;;4969889;28;20703;-71
2022/09/15 02:55:22;;;;;;;7.10;1.90;;;23.80;77.90;;;;;;4988389;28;20867;-71
2022/09/15 02:57:49;;;;;;;5.87;1.83;;;23.80;77.70;;;;;;4975423;28;20197;-71
2022/09/15 03:00:18;;;;;;;3.73;1.40;;;23.80;77.40;;;;;;4970379;28;20717;-71
2022/09/15 03:02:51;;;;;;;11.43;2.13;;;23.80;77.00;;;;;;4992525;28;21023;-72
2022/09/15 03:05:21;;;;;;;7.30;2.50;;;23.80;76.70;;;;;;4974194;28;20208;-71
2022/09/15 03:07:49;;;;;;;6.03;2.10;;;23.90;76.80;;;;;;4990000;28;20233;-71
2022/09/15 03:10:17;;;;;;;6.00;1.60;;;23.80;76.70;;;;;;4985794;28;20256;-71
2022/09/15 03:12:48;;;;;;;6.00;1.80;;;23.90;76.70;;;;;;4982906;28;20278;-71
2022/09/15 03:15:18;;;;;;;4.43;1.80;;;23.90;76.70;;;;;;4989089;28;20217;-71
2022/09/15 03:17:46;;;;;;;9.37;2.20;;;23.90;76.40;;;;;;4957136;28;20231;-71
2022/09/15 03:20:19;;;;;;;4.50;2.00;;;23.90;76.20;;;;;;4989666;28;20205;-71
2022/09/15 03:22:48;;;;;;;5.93;2.30;;;23.90;76.30;;;;;;4987717;28;20283;-71
2022/09/15 03:25:16;;;;;;;7.63;1.90;;;23.90;76.20;;;;;;4985251;28;20238;-72
2022/09/15 03:27:43;;;;;;;3.70;2.07;;;23.90;76.50;;;;;;4989452;28;20200;-71
2022/09/15 03:30:11;;;;;;;5.13;1.87;;;23.80;76.50;;;;;;4973753;28;20220;-71
2022/09/15 03:32:38;;;;;;;7.77;2.37;;;23.90;76.70;;;;;;4989696;28;20662;-71
2022/09/15 03:35:06;;;;;;;5.70;1.60;;;23.80;76.70;;;;;;4996569;28;20253;-71
2022/09/15 03:37:34;;;;;;;5.13;2.17;;;23.80;76.70;;;;;;4994533;28;20631;-71
2022/09/15 03:40:03;;;;;;;4.43;1.70;;;23.80;76.70;;;;;;4979450;28;20669;-71
2022/09/15 03:42:30;;;;;;;3.97;1.73;;;23.80;76.70;;;;;;4991438;28;20217;-71
2022/09/15 03:44:57;;;;;;;4.57;1.77;;;23.70;76.80;;;;;;4996929;28;20208;-71
2022/09/15 03:47:24;;;;;;;6.90;2.23;;;23.70;76.80;;;;;;4995519;28;20199;-71
2022/09/15 03:49:51;;;;;;;13.00;2.43;;;23.70;76.80;;;;;;4972470;28;20200;-71
2022/09/15 03:52:18;;;;;;;2.87;1.83;;;23.70;77.00;;;;;;4990979;28;20216;-71
2022/09/15 03:54:47;;;;;;;6.27;2.23;;;23.70;77.10;;;;;;4993530;28;20644;-71
2022/09/15 03:57:14;;;;;;;9.80;2.27;;;23.70;77.10;;;;;;4996682;28;20231;-71
2022/09/15 03:59:40;;;;;;;4.10;1.77;;;23.70;77.20;;;;;;4973641;28;20585;-72
2022/09/15 04:02:08;;;;;;;8.23;2.03;;;23.60;77.30;;;;;;4996016;28;20203;-71
2022/09/15 04:04:35;;;;;;;8.43;2.40;;;23.70;77.30;;;;;;4989347;28;20201;-71
2022/09/15 04:07:02;;;;;;;5.97;2.30;;;23.60;77.30;;;;;;4976361;28;20224;-71
2022/09/15 04:09:30;;;;;;;6.07;2.20;;;23.60;77.30;;;;;;4996009;28;20212;-71
2022/09/15 04:11:57;;;;;;;4.60;1.80;;;23.70;77.30;;;;;;4996398;28;20505;-71
2022/09/15 04:14:24;;;;;;;4.70;2.43;;;23.70;77.30;;;;;;4991647;28;20650;-72
2022/09/15 04:16:51;;;;;;;6.20;2.00;;;23.70;77.40;;;;;;4994823;28;20228;-71
2022/09/15 04:19:18;;;;;;;7.00;1.93;;;23.60;77.50;;;;;;4991352;28;20689;-72
2022/09/15 04:21:46;;;;;;;6.57;2.23;;;23.70;77.70;;;;;;4979511;28;20208;-71
2022/09/15 04:24:13;;;;;;;7.93;1.93;;;23.70;77.90;;;;;;4976316;28;20266;-71
2022/09/15 04:26:40;;;;;;;6.20;1.90;;;23.70;78.10;;;;;;4992095;28;20236;-71
2022/09/15 04:29:13;;;;;;;5.07;2.03;;;23.70;78.30;;;;;;4992498;28;20212;-71
2022/09/15 04:31:40;;;;;;;4.23;2.10;;;23.70;78.50;;;;;;4993099;28;20248;-71
2022/09/15 04:34:07;;;;;;;4.53;2.67;;;23.70;78.70;;;;;;4988717;28;20233;-71
2022/09/15 04:36:34;;;;;;;6.93;2.53;;;23.70;78.90;;;;;;4995413;28;20267;-71
2022/09/15 04:39:01;;;;;;;4.43;2.23;;;23.70;79.10;;;;;;4993892;28;20201;-71
2022/09/15 04:41:29;;;;;;;4.43;1.70;;;23.70;79.30;;;;;;4995203;28;20201;-71
2022/09/15 04:43:57;;;;;;;7.97;2.40;;;23.70;79.50;;;;;;4970323;28;20356;-71
2022/09/15 04:46:24;;;;;;;3.93;1.90;;;23.70;79.80;;;;;;4988077;28;20200;-71
2022/09/15 04:48:52;;;;;;;8.40;2.20;;;23.70;79.90;;;;;;4993764;28;20304;-71
2022/09/15 04:51:21;;;;;;;5.07;2.07;;;23.70;80.10;;;;;;4993275;28;20200;-71
2022/09/15 04:53:49;;;;;;;6.67;2.47;;;23.70;80.40;;;;;;4989641;28;20228;-71
2022/09/15 04:56:21;;;;;;;5.37;1.87;;;23.70;81.20;;;;;;4993263;28;20236;-71
2022/09/15 04:58:54;;;;;;;4.30;2.27;;;23.70;80.70;;;;;;4992845;28;20639;-71
2022/09/15 05:01:29;;;;;;;4.03;2.13;;;23.70;80.90;;;;;;4991726;28;20898;-71
2022/09/15 05:03:56;;;;;;;4.03;2.20;;;23.70;81.00;;;;;;4994022;28;20204;-72
2022/09/15 05:06:26;;;;;;;2.73;1.47;;;23.80;81.20;;;;;;4992855;28;20213;-71
2022/09/15 05:08:55;;;;;;;6.87;2.23;;;23.80;81.30;;;;;;4973540;28;20243;-71
2022/09/15 05:11:23;;;;;;;5.03;1.73;;;23.80;81.30;;;;;;4990227;28;20197;-71
2022/09/15 05:13:51;;;;;;;6.07;1.70;;;23.80;81.30;;;;;;4976335;28;20603;-71
2022/09/15 05:16:20;;;;;;;5.03;2.43;;;23.80;81.30;;;;;;4991123;28;20197;-71
2022/09/15 05:18:49;;;;;;;4.53;1.97;;;23.80;81.40;;;;;;4972760;28;20212;-71
2022/09/15 05:21:19;;;;;;;4.70;2.13;;;23.80;81.50;;;;;;4991076;28;20219;-71
2022/09/15 05:23:47;;;;;;;5.80;2.27;;;23.80;81.50;;;;;;4978050;28;20205;-71
2022/09/15 05:26:26;;;;;;;7.13;2.40;;;23.80;81.50;;;;;;4974611;28;20606;-71
2022/09/15 05:28:53;;;;;;;4.77;2.13;;;23.80;81.60;;;;;;4989617;28;20509;-71
2022/09/15 05:31:23;;;;;;;8.77;2.13;;;23.80;81.60;;;;;;4978319;28;20214;-71
2022/09/15 05:33:51;;;;;;;6.83;2.40;;;23.90;81.70;;;;;;4992457;28;20708;-71
2022/09/15 05:36:22;;;;;;;5.57;1.83;;;23.90;81.60;;;;;;4993219;28;20206;-70
2022/09/15 05:38:49;;;;;;;8.43;2.00;;;24.00;81.50;;;;;;4972618;28;20271;-70
2022/09/15 05:41:18;;;;;;;3.70;1.70;;;24.10;81.50;;;;;;4976068;28;20220;-71
2022/09/15 05:43:46;;;;;;;4.90;1.63;;;24.10;81.50;;;;;;4977584;28;20210;-71
2022/09/15 05:46:14;;;;;;;8.13;1.80;;;24.10;81.30;;;;;;4994353;28;20562;-71
2022/09/15 05:48:42;;;;;;;4.07;1.93;;;24.10;81.00;;;;;;4976315;28;20212;-70
2022/09/15 05:51:09;;;;;;;4.40;2.07;;;24.20;80.80;;;;;;4985230;28;20235;-71
2022/09/15 05:53:37;;;;;;;5.13;1.97;;;24.10;80.50;;;;;;4988738;28;20209;-71
2022/09/15 05:56:10;;;;;;;5.47;1.70;;;24.10;80.40;;;;;;4983843;28;20378;-70
2022/09/15 05:58:39;;;;;;;3.63;1.70;;;24.20;80.50;;;;;;4993283;28;20200;-71
2022/09/15 06:01:18;;;;;;;2.70;1.47;;;24.20;80.40;;;;;;4981367;28;20201;-71
2022/09/15 06:03:46;;;;;;;5.37;2.27;;;24.10;80.40;;;;;;4988807;28;20210;-71
2022/09/15 06:06:14;;;;;;;4.53;1.80;;;24.20;80.40;;;;;;4977411;28;20224;-71
2022/09/15 06:08:47;;;;;;;2.60;1.47;;;24.20;80.40;;;;;;4958689;28;20246;-70
2022/09/15 06:11:24;;;;;;;3.73;1.90;;;24.20;80.30;;;;;;4976592;28;20634;-70
2022/09/15 06:13:51;;;;;;;4.93;1.77;;;24.20;80.40;;;;;;4975643;28;20224;-71
2022/09/15 06:16:23;;;;;;;2.40;1.80;;;24.30;80.60;;;;;;4990605;28;20200;-70
2022/09/15 06:18:51;;;;;;;5.23;2.00;;;24.30;80.50;;;;;;4975044;28;20209;-71
2022/09/15 06:21:21;;;;;;;11.80;1.90;;;24.40;80.60;;;;;;4985998;28;20204;-71
2022/09/15 06:23:59;;;;;;;2.83;1.73;;;24.40;80.40;;;;;;4976913;28;20235;-71
2022/09/15 06:26:27;;;;;;;7.70;2.33;;;24.50;80.20;;;;;;4989804;28;20573;-70
2022/09/15 06:28:56;;;;;;;5.10;2.10;;;24.60;80.10;;;;;;4974253;28;20221;-71
2022/09/15 06:31:25;;;;;;;4.10;1.90;;;24.70;80.00;;;;;;4988187;28;20591;-71
2022/09/15 06:33:54;;;;;;;5.77;1.97;;;24.80;79.90;;;;;;4975014;28;20229;-71
2022/09/15 06:36:24;;;;;;;6.20;1.80;;;24.90;79.70;;;;;;4976567;28;20266;-71
2022/09/15 06:38:52;;;;;;;2.30;1.20;;;24.90;79.30;;;;;;4993452;28;20209;-71
2022/09/15 06:41:19;;;;;;;4.17;1.77;;;25.00;78.90;;;;;;4974428;28;20198;-71
2022/09/15 06:43:48;;;;;;;3.87;2.07;;;25.10;78.80;;;;;;4989050;28;20201;-71
2022/09/15 06:46:21;;;;;;;4.50;1.67;;;25.20;78.80;;;;;;4988415;28;20209;-71
2022/09/15 06:48:50;;;;;;;4.17;1.70;;;25.30;78.40;;;;;;4991507;28;20206;-70
2022/09/15 06:51:18;;;;;;;7.17;1.90;;;25.40;78.20;;;;;;4978285;28;20474;-70
2022/09/15 06:53:46;;;;;;;7.33;2.20;;;25.50;77.90;;;;;;4990699;28;20218;-71
2022/09/15 06:56:15;;;;;;;4.83;1.97;;;25.60;77.60;;;;;;4987639;28;20239;-71
2022/09/15 06:58:44;;;;;;;5.97;2.83;;;25.70;77.50;;;;;;4993837;28;20673;-70
2022/09/15 07:01:13;;;;;;;6.93;2.20;;;25.80;77.20;;;;;;4984931;28;20290;-70
2022/09/15 07:03:42;;;;;;;7.33;2.53;;;25.90;77.00;;;;;;4986440;28;20252;-71
2022/09/15 07:06:13;;;;;;;3.37;2.00;;;26.00;76.80;;;;;;4988684;28;20635;-71
2022/09/15 07:08:41;;;;;;;4.30;2.13;;;26.00;76.70;;;;;;4973612;28;20209;-72
2022/09/15 07:11:09;;;;;;;4.60;1.87;;;26.00;76.70;;;;;;4994217;28;20513;-71
2022/09/15 07:13:36;;;;;;;6.50;2.00;;;26.10;76.70;;;;;;4990487;28;20578;-71
2022/09/15 07:16:06;;;;;;;4.97;2.10;;;26.10;77.10;;;;;;4995009;28;20200;-71
2022/09/15 07:18:33;;;;;;;6.27;2.00;;;26.00;77.30;;;;;;4980515;28;20193;-71
2022/09/15 07:21:06;;;;;;;7.13;2.53;;;26.00;77.20;;;;;;4994693;28;20208;-71
2022/09/15 07:23:34;;;;;;;5.43;1.77;;;26.10;77.30;;;;;;4959422;28;20221;-71
2022/09/15 07:26:07;;;;;;;3.73;1.50;;;26.00;76.80;;;;;;4992807;28;20224;-71
2022/09/15 07:28:34;;;;;;;7.33;2.37;;;26.00;77.20;;;;;;4961879;28;20231;-71
2022/09/15 07:31:03;;;;;;;6.80;2.33;;;25.90;77.50;;;;;;4990853;28;20207;-71
2022/09/15 07:33:31;;;;;;;14.23;3.13;;;25.90;77.60;;;;;;4978673;28;20215;-71
2022/09/15 07:36:05;;;;;;;5.43;2.40;;;25.90;77.50;;;;;;4962148;28;20606;-71
2022/09/15 07:38:34;;;;;;;7.97;2.40;;;25.90;77.50;;;;;;4978251;28;20216;-71
2022/09/15 07:41:12;;;;;;;6.70;2.40;;;25.90;77.70;;;;;;4992450;28;20268;-71
2022/09/15 07:43:39;;;;;;;5.13;2.00;;;25.90;78.00;;;;;;4992631;28;20200;-71
2022/09/15 07:46:06;;;;;;;5.90;2.23;;;25.90;78.20;;;;;;4990368;28;20211;-71
2022/09/15 07:48:33;;;;;;;11.57;2.37;;;25.90;78.60;;;;;;4995030;28;20207;-72
2022/09/15 07:51:00;;;;;;;11.43;2.60;;;25.90;78.90;;;;;;4975958;28;20959;-71
2022/09/15 07:53:28;;;;;;;4.47;2.23;;;25.90;79.20;;;;;;4993039;28;20259;-71
2022/09/15 07:55:55;;;;;;;7.00;2.47;;;25.90;79.20;;;;;;4978309;28;20255;-71
2022/09/15 07:58:23;;;;;;;6.07;2.13;;;26.00;79.40;;;;;;4970413;28;20219;-71
2022/09/15 08:00:50;;;;;;;5.80;2.03;;;26.10;79.10;;;;;;4994132;28;20195;-71
2022/09/15 08:03:18;;;;;;;12.37;2.07;;;26.10;78.50;;;;;;4995368;28;20212;-73
2022/09/15 08:05:45;;;;;;;6.00;2.23;;;26.20;78.10;;;;;;4995666;28;20253;-73
2022/09/15 08:08:12;;;;;;;5.47;2.10;;;26.20;77.90;;;;;;4977703;28;20202;-73
2022/09/15 08:10:40;;;;;;;4.30;2.20;;;26.30;77.60;;;;;;4960747;28;20211;-73
2022/09/15 08:13:07;;;;;;;6.90;2.30;;;26.40;77.50;;;;;;4980740;28;20209;-73
2022/09/15 08:15:37;;;;;;;4.40;2.23;;;26.50;77.10;;;;;;4994478;28;20258;-73
2022/09/15 08:18:05;;;;;;;8.50;2.40;;;26.50;76.80;;;;;;4980498;28;20616;-74
2022/09/15 08:20:32;;;;;;;7.17;2.20;;;26.50;76.50;;;;;;4991286;28;20215;-73
2022/09/15 08:22:59;;;;;;;11.00;2.53;;;26.60;76.30;;;;;;4991833;28;20201;-73
2022/09/15 08:25:27;;;;;;;7.57;3.10;;;26.60;76.10;;;;;;4966009;28;20212;-73
2022/09/15 08:27:55;;;;;;;11.43;2.90;;;26.70;75.90;;;;;;4993272;28;20204;-73
2022/09/15 08:30:22;;;;;;;11.97;3.50;;;26.80;75.70;;;;;;4995887;28;20211;-72
2022/09/15 08:32:50;;;;;;;9.23;3.30;;;26.80;75.60;;;;;;4992637;28;20208;-72
2022/09/15 08:35:18;;;;;;;13.93;4.10;;;26.90;75.60;;;;;;4990022;28;20230;-74
2022/09/15 08:37:45;;;;;;;9.20;4.00;;;26.90;75.50;;;;;;4993364;28;20232;-73
2022/09/15 08:40:29;;;;;;;10.47;3.60;;;26.90;75.60;;;;;;4990950;28;20263;-73
2022/09/15 08:43:02;;;;;;;7.13;2.93;;;26.90;75.60;;;;;;4989748;28;20221;-73
2022/09/15 08:45:36;;;;;;;6.70;2.33;;;26.90;75.50;;;;;;4991855;28;20643;-73
2022/09/15 08:48:07;;;;;;;4.87;2.33;;;26.90;75.30;;;;;;4994544;28;20255;-73
2022/09/15 08:50:40;;;;;;;6.47;2.63;;;27.00;75.30;;;;;;4992984;28;20212;-73
2022/09/15 08:53:45;;;;;;;6.07;2.60;;;27.20;75.00;;;;;;4978897;28;20204;-72
2022/09/15 08:56:19;;;;;;;8.33;2.83;;;27.30;74.30;;;;;;4937989;28;20550;-73
2022/09/15 08:58:46;;;;;;;5.97;2.20;;;27.40;73.50;;;;;;4976918;28;20204;-73
2022/09/15 09:01:33;;;;;;;5.43;2.13;;;27.50;73.40;;;;;;4993814;28;20203;-73
2022/09/15 09:04:09;;;;;;;6.90;2.37;;;27.60;74.00;;;;;;4990903;28;20207;-73
2022/09/15 09:06:43;;;;;;;7.23;2.43;;;27.90;73.00;;;;;;4995232;28;20600;-73
2022/09/15 09:09:19;;;;;;;13.63;2.97;;;28.20;72.40;;;;;;4991474;28;20212;-73
2022/09/15 09:11:46;;;;;;;5.27;2.20;;;28.40;70.90;;;;;;4991360;28;20236;-73
2022/09/15 09:14:37;;;;;;;8.97;2.70;;;28.60;70.30;;;;;;4991605;28;20213;-73
2022/09/15 09:17:22;;;;;;;4.63;2.17;;;28.80;69.30;;;;;;4991522;28;20220;-73
2022/09/15 09:19:56;;;;;;;10.57;3.60;;;28.90;68.50;;;;;;4993876;28;20197;-73
2022/09/15 09:22:30;;;;;;;10.97;5.10;;;29.00;67.30;;;;;;4976941;28;20200;-73
2022/09/15 09:24:59;;;;;;;21.70;14.37;;;29.10;66.60;;;;;;4960384;28;20213;-73
2022/09/15 09:27:42;;;;;;;8.63;3.73;;;29.10;66.60;;;;;;4993511;28;20199;-74
2022/09/15 09:30:14;;;;;;;7.80;2.90;;;29.20;66.20;;;;;;4993655;28;20511;-73
2022/09/15 09:32:46;;;;;;;6.43;3.13;;;29.40;65.70;;;;;;4993499;28;20207;-73
2022/09/15 09:35:43;;;;;;;10.70;3.40;;;29.60;65.60;;;;;;4974627;28;20259;-73
2022/09/15 09:38:13;;;;;;;8.30;2.70;;;29.80;64.80;;;;;;4975191;28;20208;-73
2022/09/15 09:40:41;;;;;;;9.50;2.97;;;30.10;64.00;;;;;;4991152;28;20196;-73
2022/09/15 09:43:09;;;;;;;11.00;3.03;;;30.30;62.70;;;;;;4984529;28;20686;-74
2022/09/15 09:45:36;;;;;;;6.90;3.17;;;30.40;62.70;;;;;;4990869;28;20213;-73
2022/09/15 09:48:20;;;;;;;12.33;3.80;;;30.30;62.10;;;;;;4990247;28;20260;-73
2022/09/15 09:50:49;;;;;;;14.27;3.73;;;30.20;62.30;;;;;;4977286;28;20701;-73
2022/09/15 09:53:29;;;;;;;14.13;3.17;;;30.00;62.60;;;;;;4971085;28;20205;-74
2022/09/15 09:56:21;;;;;;;12.37;3.07;;;29.80;62.60;;;;;;4992445;28;20744;-74
2022/09/15 09:58:48;;;;;;;10.33;3.17;;;29.60;63.90;;;;;;4990231;28;20243;-73
2022/09/15 10:01:20;;;;;;;10.73;2.70;;;29.50;64.20;;;;;;4992161;28;20201;-73
2022/09/15 10:03:47;;;;;;;10.47;3.50;;;29.30;65.20;;;;;;4986819;28;20220;-73
2022/09/15 10:06:17;;;;;;;8.77;3.97;;;29.20;66.20;;;;;;4991352;28;20205;-73
2022/09/15 10:09:03;;;;;;;7.77;3.43;;;29.20;66.80;;;;;;4981189;28;20255;-73
2022/09/15 10:11:47;;;;;;;9.70;3.73;;;29.10;67.10;;;;;;4988945;28;20213;-73
2022/09/15 10:14:21;;;;;;;10.07;3.73;;;29.00;68.00;;;;;;4989610;28;20215;-73
2022/09/15 10:17:17;;;;;;;16.73;3.97;;;28.90;68.40;;;;;;4993936;28;20196;-73
2022/09/15 10:19:53;;;;;;;17.57;3.90;;;28.70;68.50;;;;;;4972846;28;20278;-73
2022/09/15 10:22:29;;;;;;;11.23;3.57;;;28.70;67.90;;;;;;4986093;28;20533;-73
2022/09/15 10:24:57;;;;;;;13.43;4.00;;;28.60;67.90;;;;;;4970346;28;20574;-73
2022/09/15 10:27:29;;;;;;;11.77;3.20;;;28.50;67.70;;;;;;4972909;28;20264;-73
2022/09/15 10:30:14;;;;;;;7.10;3.03;;;28.50;67.90;;;;;;4972968;28;20213;-73
2022/09/15 10:32:42;;;;;;;13.73;3.43;;;28.70;68.40;;;;;;4989204;28;20204;-73
2022/09/15 10:35:12;;;;;;;12.07;3.47;;;29.10;67.60;;;;;;4989881;28;20501;-73
2022/09/15 10:37:54;;;;;;;13.17;3.53;;;29.50;66.20;;;;;;4992749;28;20216;-73
2022/09/15 10:40:33;;;;;;;16.47;4.83;;;29.90;64.60;;;;;;4991520;28;20205;-73
2022/09/15 10:43:10;;;;;;;13.03;5.37;;;30.40;63.80;;;;;;4991593;28;20200;-73
2022/09/15 10:45:41;;;;;;;7.53;3.50;;;30.80;62.00;;;;;;4990998;28;20271;-73
2022/09/15 10:48:40;;;;;;;12.00;4.13;;;31.10;59.50;;;;;;4968490;28;20204;-73
2022/09/15 10:51:26;;;;;;;12.00;3.57;;;31.30;58.80;;;;;;4973204;28;20251;-73
2022/09/15 10:54:24;;;;;;;15.67;3.27;;;31.40;58.40;;;;;;4987479;28;20204;-73
2022/09/15 10:57:29;;;;;;;5.63;2.67;;;31.20;56.90;;;;;;4990069;28;20256;-73
2022/09/15 11:00:21;;;;;;;8.53;2.43;;;30.90;57.50;;;;;;4988917;28;20826;-73
2022/09/15 11:03:06;;;;;;;11.70;3.57;;;30.70;57.30;;;;;;4989252;28;20263;-73
2022/09/15 11:06:04;;;;;;;12.83;2.97;;;30.40;57.50;;;;;;4987171;28;20267;-73
2022/09/15 11:08:53;;;;;;;9.27;3.10;;;30.20;58.50;;;;;;4964123;28;20258;-73
2022/09/15 11:11:44;;;;;;;10.87;3.20;;;30.00;59.90;;;;;;4990409;28;20232;-73
2022/09/15 11:14:23;;;;;;;8.07;2.60;;;29.80;60.30;;;;;;4972941;28;20205;-73
2022/09/15 11:16:53;;;;;;;9.90;3.13;;;29.60;60.50;;;;;;4972234;28;20243;-72
2022/09/15 11:19:20;;;;;;;6.97;3.07;;;29.50;61.30;;;;;;4991764;28;20209;-72
2022/09/15 11:21:57;;;;;;;8.93;2.47;;;29.30;61.20;;;;;;4976422;28;20200;-72
2022/09/15 11:24:42;;;;;;;10.97;2.43;;;29.20;62.10;;;;;;4973961;28;20201;-72
2022/09/15 11:27:16;;;;;;;13.93;2.97;;;29.10;62.30;;;;;;4987192;28;20205;-73
2022/09/15 11:29:46;;;;;;;10.37;2.77;;;28.90;62.60;;;;;;4973052;28;20197;-73
2022/09/15 11:32:23;;;;;;;9.60;3.00;;;28.80;63.40;;;;;;4981129;28;20212;-73
2022/09/15 11:35:01;;;;;;;10.97;3.10;;;28.70;64.40;;;;;;4990125;28;20287;-72
2022/09/15 11:37:50;;;;;;;8.70;2.30;;;28.60;64.90;;;;;;4988630;28;20243;-72
2022/09/15 11:40:27;;;;;;;9.57;2.97;;;28.50;64.20;;;;;;4973799;28;20251;-73
2022/09/15 11:43:03;;;;;;;11.77;3.07;;;28.40;63.60;;;;;;4974740;28;20200;-73
2022/09/15 11:45:37;;;;;;;9.90;2.63;;;28.30;63.80;;;;;;4986897;28;20262;-73
2022/09/15 11:48:17;;;;;;;14.00;3.13;;;28.20;64.50;;;;;;4989419;28;20242;-73
2022/09/15 11:50:47;;;;;;;23.70;3.77;;;28.10;65.00;;;;;;4989464;28;20759;-73
2022/09/15 11:53:34;;;;;;;36.23;5.13;;;28.00;65.00;;;;;;4972063;28;20228;-73
2022/09/15 11:56:24;;;;;;;25.67;3.90;;;28.00;65.40;;;;;;4992028;28;20678;-73
2022/09/15 11:59:13;;;;;;;34.70;6.00;;;27.90;65.90;;;;;;4983008;28;20887;-73
2022/09/15 12:01:59;;;;;;;21.73;3.93;;;27.80;66.10;;;;;;4989517;28;20223;-73
2022/09/15 12:04:32;;;;;;;19.93;3.50;;;27.70;66.50;;;;;;4957881;28;20293;-73
2022/09/15 12:07:04;;;;;;;35.87;4.27;;;27.60;67.30;;;;;;4990568;28;20209;-73
2022/09/15 12:09:38;;;;;;;58.03;5.37;;;27.50;67.20;;;;;;4988491;28;20204;-73
2022/09/15 12:12:14;;;;;;;28.40;4.43;;;27.50;67.50;;;;;;4971013;28;20278;-73
2022/09/15 12:14:43;;;;;;;14.53;3.87;;;27.40;67.80;;;;;;4993346;28;20239;-73
2022/09/15 12:17:23;;;;;;;25.10;4.90;;;27.40;67.50;;;;;;4991732;28;20216;-73
2022/09/15 12:20:43;;;;;;;39.93;6.03;;;27.40;67.40;;;;;;4971513;28;20207;-73
2022/09/15 12:23:13;;;;;;;40.97;5.70;;;27.30;67.60;;;;;;4936785;28;20629;-73
2022/09/15 12:25:49;;;;;;;25.33;5.13;;;27.30;67.80;;;;;;4993205;28;20218;-73
2022/09/15 12:28:21;;;;;;;19.77;3.37;;;27.30;67.90;;;;;;4991836;28;20212;-73
2022/09/15 12:31:24;;;;;;;12.03;3.20;;;27.30;68.10;;;;;;4980352;28;20713;-73
2022/09/15 12:33:58;;;;;;;14.20;3.90;;;27.30;67.50;;;;;;4990088;28;20211;-73
2022/09/15 12:36:38;;;;;;;21.43;3.93;;;27.20;67.10;;;;;;4993778;28;20231;-73
2022/09/15 12:39:36;;;;;;;20.77;4.37;;;27.30;67.00;;;;;;4993833;28;20201;-73
2022/09/15 12:42:09;;;;;;;31.10;5.63;;;27.30;67.00;;;;;;4990889;28;20215;-73
2022/09/15 12:44:40;;;;;;;25.90;4.33;;;27.30;67.30;;;;;;4992068;28;20212;-72
2022/09/15 12:47:27;;;;;;;17.07;5.30;;;27.20;67.00;;;;;;4991657;28;20266;-72
2022/09/15 12:49:59;;;;;;;24.43;4.30;;;27.10;66.70;;;;;;4989486;28;20615;-72
2022/09/15 12:52:28;;;;;;;15.50;3.13;;;27.00;66.30;;;;;;4988860;28;20203;-73
2022/09/15 12:55:00;;;;;;;14.57;3.70;;;26.80;66.30;;;;;;4974283;28;20670;-73
2022/09/15 12:57:32;;;;;;;17.47;3.70;;;26.70;66.70;;;;;;4978367;28;20227;-73
2022/09/15 13:00:27;;;;;;;12.23;2.87;;;26.50;67.10;;;;;;4992843;28;20201;-73
2022/09/15 13:02:56;;;;;;;11.73;2.37;;;26.40;67.50;;;;;;4973770;28;20550;-73
2022/09/15 13:05:41;;;;;;;8.07;2.47;;;26.20;67.40;;;;;;4991483;28;20215;-73
2022/09/15 13:08:14;;;;;;;15.83;3.20;;;26.10;67.50;;;;;;4989123;28;20218;-73
2022/09/15 13:10:58;;;;;;;18.47;3.70;;;26.00;67.40;;;;;;4985746;28;20638;-73
2022/09/15 13:13:38;;;;;;;9.20;2.30;;;25.90;67.20;;;;;;4974482;28;20261;-73